createdAt,value
2023-03-02T00:02:22.480Z,12.67
2023-03-02T00:04:54.810Z,12.27
2023-03-02T00:07:27.133Z,10.67
2023-03-02T00:09:54.827Z,11.27
2023-03-02T00:12:21.645Z,12.43
2023-03-02T00:14:48.396Z,14.17
2023-03-02T00:17:14.989Z,10.97
2023-03-02T00:19:41.995Z,10.47
2023-03-02T00:22:10.228Z,10.70
2023-03-02T00:24:37.755Z,14.13
2023-03-02T00:27:04.391Z,13.20
2023-03-02T00:29:31.105Z,10.97
2023-03-02T00:31:57.739Z,12.13
2023-03-02T00:34:24.422Z,11.80
2023-03-02T00:36:51.002Z,11.80
2023-03-02T00:39:19.926Z,13.40
2023-03-02T00:41:47.238Z,12.67
2023-03-02T00:44:17.473Z,13.60
2023-03-02T00:46:44.755Z,13.20
2023-03-02T00:49:12.825Z,13.47
2023-03-02T00:51:39.600Z,12.27
2023-03-02T00:54:06.302Z,14.13
2023-03-02T00:56:33.396Z,12.17
2023-03-02T00:59:11.061Z,15.97
2023-03-02T01:01:38.019Z,12.27
2023-03-02T01:04:05.070Z,12.87
2023-03-02T01:06:32.618Z,12.07
2023-03-02T01:08:59.533Z,11.97
2023-03-02T01:11:26.158Z,12.03
2023-03-02T01:13:52.799Z,12.43
2023-03-02T01:16:19.534Z,13.20
2023-03-02T01:18:46.238Z,13.60
2023-03-02T01:21:15.476Z,12.07
2023-03-02T01:23:42.579Z,11.20
2023-03-02T01:26:09.962Z,10.97
2023-03-02T01:28:36.772Z,11.97
2023-03-02T01:31:04.528Z,11.80
2023-03-02T01:33:32.664Z,11.90
2023-03-02T01:35:59.512Z,11.07
2023-03-02T01:38:26.830Z,12.60
2023-03-02T01:40:53.575Z,12.40
2023-03-02T01:43:20.273Z,12.03
2023-03-02T01:45:59.671Z,11.77
2023-03-02T01:48:57.350Z,12.10
2023-03-02T01:51:38.097Z,11.27
2023-03-02T01:54:10.425Z,11.57
2023-03-02T01:56:40.377Z,12.30
2023-03-02T01:59:13.092Z,12.93
2023-03-02T02:01:42.518Z,11.47
2023-03-02T02:04:09.752Z,12.17
2023-03-02T02:06:48.216Z,11.53
2023-03-02T02:09:18.195Z,12.63
2023-03-02T02:11:45.914Z,12.07
2023-03-02T02:14:13.368Z,11.27
2023-03-02T02:16:41.216Z,11.90
2023-03-02T02:19:33.800Z,10.83
2023-03-02T02:22:01.586Z,11.33
2023-03-02T02:24:35.886Z,11.10
2023-03-02T02:27:02.579Z,10.77
2023-03-02T02:29:45.423Z,10.97
2023-03-02T02:32:26.616Z,10.30
2023-03-02T02:35:14.200Z,10.80
2023-03-02T02:37:54.424Z,11.17
2023-03-02T02:40:44.871Z,10.73
2023-03-02T02:43:18.136Z,11.80
2023-03-02T02:45:46.943Z,11.03
2023-03-02T02:48:20.084Z,11.50
2023-03-02T02:50:47.412Z,11.67
2023-03-02T02:53:21.731Z,10.97
2023-03-02T02:55:51.913Z,11.50
2023-03-02T02:58:25.040Z,9.80
2023-03-02T03:00:53.873Z,11.13
2023-03-02T03:03:29.237Z,10.17
2023-03-02T03:06:00.111Z,11.07
2023-03-02T03:09:00.245Z,11.13
2023-03-02T03:11:41.307Z,10.43
2023-03-02T03:14:36.547Z,11.67
2023-03-02T03:17:04.207Z,10.43
2023-03-02T03:19:33.307Z,10.37
2023-03-02T03:22:02.144Z,11.00
2023-03-02T03:24:34.891Z,9.33
2023-03-02T03:27:06.566Z,10.20
2023-03-02T03:29:39.428Z,10.27
2023-03-02T03:32:08.314Z,10.37
2023-03-02T03:34:41.662Z,12.30
2023-03-02T03:37:41.668Z,10.23
2023-03-02T03:40:10.402Z,9.93
2023-03-02T03:42:40.236Z,9.83
2023-03-02T03:45:08.826Z,10.00
2023-03-02T03:47:36.842Z,10.40
2023-03-02T03:50:06.120Z,10.80
2023-03-02T03:52:33.471Z,11.03
2023-03-02T03:55:12.447Z,9.40
2023-03-02T03:57:40.044Z,10.73
2023-03-02T04:00:14.844Z,10.00
2023-03-02T04:02:45.784Z,10.40
2023-03-02T04:05:12.759Z,9.63
2023-03-02T04:07:40.983Z,10.57
2023-03-02T04:10:09.304Z,10.10
2023-03-02T04:12:41.064Z,9.93
2023-03-02T04:15:14.701Z,9.87
2023-03-02T04:17:43.535Z,9.10
2023-03-02T04:20:16.615Z,9.87
2023-03-02T04:22:48.045Z,10.83
2023-03-02T04:25:19.620Z,9.43
2023-03-02T04:27:48.391Z,9.83
2023-03-02T04:30:18.502Z,9.67
2023-03-02T04:32:45.243Z,9.80
2023-03-02T04:35:13.494Z,10.33
2023-03-02T04:37:41.571Z,10.40
2023-03-02T04:40:11.693Z,9.63
2023-03-02T04:42:39.098Z,10.23
2023-03-02T04:45:06.416Z,10.10
2023-03-02T04:47:33.344Z,10.57
2023-03-02T04:49:59.967Z,11.50
2023-03-02T04:52:26.802Z,11.00
2023-03-02T04:54:53.444Z,8.73
2023-03-02T04:57:20.107Z,9.43
2023-03-02T04:59:46.736Z,8.93
2023-03-02T05:02:13.615Z,9.23
2023-03-02T05:04:42.412Z,9.73
2023-03-02T05:07:09.243Z,10.07
2023-03-02T05:09:36.019Z,10.33
2023-03-02T05:12:02.659Z,8.73
2023-03-02T05:14:29.910Z,9.90
2023-03-02T05:16:57.104Z,8.93
2023-03-02T05:19:24.043Z,9.77
2023-03-02T05:21:51.236Z,9.43
2023-03-02T05:24:18.254Z,9.80
2023-03-02T05:26:45.021Z,9.97
2023-03-02T05:29:11.643Z,9.10
2023-03-02T05:31:41.545Z,9.40
2023-03-02T05:34:13.202Z,9.67
2023-03-02T05:36:39.805Z,9.70
2023-03-02T05:39:06.908Z,9.13
2023-03-02T05:41:33.596Z,9.77
2023-03-02T05:44:00.658Z,9.13
2023-03-02T05:46:27.822Z,10.10
2023-03-02T05:48:54.581Z,9.27
2023-03-02T05:51:21.454Z,9.80
2023-03-02T05:53:48.192Z,9.10
2023-03-02T05:56:14.931Z,10.83
2023-03-02T05:58:41.547Z,9.13
2023-03-02T06:01:12.580Z,9.63
2023-03-02T06:03:41.590Z,11.30
2023-03-02T06:06:08.228Z,9.73
2023-03-02T06:08:34.889Z,10.47
2023-03-02T06:11:01.921Z,9.30
2023-03-02T06:13:28.527Z,9.70
2023-03-02T06:15:55.884Z,10.50
2023-03-02T06:18:22.692Z,10.23
2023-03-02T06:20:50.478Z,9.77
2023-03-02T06:23:17.089Z,9.77
2023-03-02T06:25:48.533Z,10.70
2023-03-02T06:28:16.208Z,9.97
2023-03-02T06:30:42.973Z,10.23
2023-03-02T06:33:09.680Z,10.23
2023-03-02T06:35:36.494Z,10.40
2023-03-02T06:38:03.296Z,10.30
2023-03-02T06:40:30.323Z,10.23
2023-03-02T06:42:57.118Z,10.27
2023-03-02T06:45:23.776Z,9.27
2023-03-02T06:47:50.397Z,10.37
2023-03-02T06:50:17.066Z,10.30
2023-03-02T06:52:43.813Z,10.70
2023-03-02T06:55:10.698Z,10.77
2023-03-02T06:57:37.655Z,10.63
2023-03-02T07:00:13.165Z,11.00
2023-03-02T07:02:39.819Z,10.13
2023-03-02T07:05:07.420Z,10.33
2023-03-02T07:07:34.399Z,9.80
2023-03-02T07:10:01.072Z,10.70
2023-03-02T07:12:28.004Z,9.97
2023-03-02T07:14:54.700Z,9.70
2023-03-02T07:17:21.383Z,10.50
2023-03-02T07:19:47.991Z,10.17
2023-03-02T07:22:14.639Z,11.33
2023-03-02T07:24:41.951Z,11.37
2023-03-02T07:27:10.104Z,10.90
2023-03-02T07:29:38.102Z,10.23
2023-03-02T07:32:06.761Z,9.90
2023-03-02T07:34:33.671Z,10.57
2023-03-02T07:37:00.365Z,10.43
2023-03-02T07:39:26.981Z,10.10
2023-03-02T07:41:57.049Z,11.83
2023-03-02T07:44:23.625Z,10.53
2023-03-02T07:46:50.567Z,10.60
2023-03-02T07:49:17.226Z,10.20
2023-03-02T07:51:44.053Z,10.67
2023-03-02T07:54:10.782Z,11.10
2023-03-02T07:56:37.654Z,10.10
2023-03-02T07:59:04.301Z,11.07
2023-03-02T08:01:31.487Z,11.43
2023-03-02T08:03:58.394Z,11.20
2023-03-02T08:06:24.993Z,10.43
2023-03-02T08:08:51.667Z,10.60
2023-03-02T08:11:19.203Z,10.43
2023-03-02T08:13:47.041Z,10.10
2023-03-02T08:16:15.596Z,10.57
2023-03-02T08:18:42.830Z,10.33
2023-03-02T08:21:18.441Z,10.70
2023-03-02T08:23:45.646Z,11.37
2023-03-02T08:26:14.795Z,10.77
2023-03-02T08:28:43.451Z,10.77
2023-03-02T08:31:11.206Z,12.03
2023-03-02T08:33:38.224Z,14.63
2023-03-02T08:36:08.416Z,14.73
2023-03-02T08:38:35.846Z,10.03
2023-03-02T08:41:05.020Z,13.97
2023-03-02T08:43:31.739Z,13.33
2023-03-02T08:45:58.436Z,13.10
2023-03-02T08:48:26.808Z,11.80
2023-03-02T08:51:06.864Z,11.70
2023-03-02T08:53:36.538Z,10.97
2023-03-02T08:56:03.737Z,11.37
2023-03-02T08:58:30.312Z,11.83
2023-03-02T09:00:56.966Z,11.63
2023-03-02T09:03:23.711Z,11.33
2023-03-02T09:05:50.980Z,11.40
2023-03-02T09:08:17.627Z,11.77
2023-03-02T09:10:44.245Z,11.47
2023-03-02T09:13:11.001Z,11.43
2023-03-02T09:15:37.638Z,10.87
2023-03-02T09:18:04.655Z,11.27
2023-03-02T09:20:32.090Z,14.13
2023-03-02T09:22:58.854Z,15.53
2023-03-02T09:25:25.575Z,13.70
2023-03-02T09:27:52.233Z,15.57
2023-03-02T09:30:18.972Z,12.77
2023-03-02T09:32:45.788Z,11.67
2023-03-02T09:35:14.629Z,22.83
2023-03-02T09:37:43.378Z,12.43
2023-03-02T09:40:23.255Z,11.50
2023-03-02T09:43:08.197Z,13.00
2023-03-02T09:45:43.995Z,17.83
2023-03-02T09:48:28.787Z,14.83
2023-03-02T09:51:24.012Z,14.97
2023-03-02T09:54:11.242Z,12.07
2023-03-02T09:56:44.044Z,11.50
2023-03-02T09:59:41.804Z,11.40
2023-03-02T10:02:26.916Z,10.93
2023-03-02T10:04:55.812Z,13.10
2023-03-02T10:07:30.326Z,19.60
2023-03-02T10:10:06.676Z,12.07
2023-03-02T10:12:53.666Z,15.27
2023-03-02T10:15:36.194Z,12.23
2023-03-02T10:18:13.547Z,11.57
2023-03-02T10:20:54.628Z,11.40
2023-03-02T10:23:32.917Z,10.20
2023-03-02T10:26:32.223Z,10.80
2023-03-02T10:29:23.695Z,11.63
2023-03-02T10:31:56.953Z,11.30
2023-03-02T10:34:27.784Z,11.13
2023-03-02T10:36:54.415Z,10.83
2023-03-02T10:39:21.257Z,11.57
2023-03-02T10:41:53.230Z,10.33
2023-03-02T10:44:28.335Z,9.60
2023-03-02T10:46:55.235Z,10.80
2023-03-02T10:49:32.299Z,12.33
2023-03-02T10:52:04.878Z,13.17
2023-03-02T10:54:34.336Z,16.93
2023-03-02T10:57:04.232Z,14.13
2023-03-02T10:59:41.050Z,19.77
2023-03-02T11:02:23.500Z,19.10
2023-03-02T11:04:57.312Z,11.90
2023-03-02T11:07:27.843Z,10.47
2023-03-02T11:10:03.637Z,11.57
2023-03-02T11:12:32.389Z,10.23
2023-03-02T11:15:08.248Z,11.03
2023-03-02T11:17:37.699Z,10.70
2023-03-02T11:20:13.244Z,10.10
2023-03-02T11:22:52.739Z,10.03
2023-03-02T11:25:34.437Z,10.23
2023-03-02T11:28:13.865Z,9.47
2023-03-02T11:30:48.006Z,10.30
2023-03-02T11:33:51.468Z,9.77
2023-03-02T11:36:23.567Z,9.60
2023-03-02T11:38:54.516Z,9.17
2023-03-02T11:41:29.785Z,9.50
2023-03-02T11:43:59.644Z,9.10
2023-03-02T11:46:32.278Z,10.13
2023-03-02T11:49:13.616Z,9.90
2023-03-02T11:51:57.906Z,9.33
2023-03-02T11:54:34.660Z,9.53
2023-03-02T11:57:01.627Z,8.67
2023-03-02T11:59:30.276Z,8.73
2023-03-02T12:01:59.508Z,8.60
2023-03-02T12:04:32.325Z,9.83
2023-03-02T12:07:01.431Z,9.17
2023-03-02T12:09:37.795Z,12.03
2023-03-02T12:12:26.480Z,10.73
2023-03-02T12:14:53.304Z,13.37
2023-03-02T12:17:22.239Z,11.83
2023-03-02T12:19:50.952Z,10.83
2023-03-02T12:22:29.316Z,9.67
2023-03-02T12:25:05.800Z,9.83
2023-03-02T12:27:38.969Z,18.60
2023-03-02T12:30:24.971Z,11.70
2023-03-02T12:33:10.224Z,10.03
2023-03-02T12:35:38.052Z,10.83
2023-03-02T12:38:19.799Z,18.70
2023-03-02T12:41:12.950Z,11.50
2023-03-02T12:43:55.795Z,11.37
2023-03-02T12:46:32.467Z,12.73
2023-03-02T12:49:01.419Z,11.50
2023-03-02T12:51:46.918Z,10.23
2023-03-02T12:54:16.615Z,11.20
2023-03-02T12:56:44.847Z,9.23
2023-03-02T12:59:27.034Z,9.13
2023-03-02T13:02:28.561Z,8.90
2023-03-02T13:04:59.605Z,9.33
2023-03-02T13:07:43.802Z,13.30
2023-03-02T13:10:25.764Z,10.70
2023-03-02T13:12:52.639Z,11.73
2023-03-02T13:15:19.732Z,10.47
2023-03-02T13:17:54.557Z,10.17
2023-03-02T13:20:24.390Z,10.57
2023-03-02T13:22:51.569Z,9.77
2023-03-02T13:25:30.343Z,9.97
2023-03-02T13:28:00.730Z,9.07
2023-03-02T13:30:32.375Z,11.53
2023-03-02T13:33:13.207Z,10.53
2023-03-02T13:35:46.600Z,9.30
2023-03-02T13:38:19.111Z,9.00
2023-03-02T13:40:48.381Z,9.93
2023-03-02T13:43:37.091Z,10.70
2023-03-02T13:46:35.492Z,9.17
2023-03-02T13:49:10.995Z,9.67
2023-03-02T13:51:44.210Z,9.27
2023-03-02T13:54:22.816Z,9.13
2023-03-02T13:56:51.146Z,11.87
2023-03-02T13:59:19.447Z,9.67
2023-03-02T14:01:46.952Z,7.37
2023-03-02T14:04:17.564Z,9.63
2023-03-02T14:06:45.891Z,8.40
2023-03-02T14:09:13.344Z,10.20
2023-03-02T14:11:42.550Z,10.67
2023-03-02T14:14:15.987Z,12.83
2023-03-02T14:16:42.580Z,9.33
2023-03-02T14:19:13.480Z,11.57
2023-03-02T14:21:40.141Z,9.20
2023-03-02T14:24:07.168Z,10.80
2023-03-02T14:26:36.414Z,8.93
2023-03-02T14:29:31.743Z,10.37
2023-03-02T14:32:00.896Z,9.03
2023-03-02T14:34:27.629Z,8.80
2023-03-02T14:36:57.364Z,10.03
2023-03-02T14:39:33.857Z,10.13
2023-03-02T14:42:00.845Z,7.87
2023-03-02T14:44:27.731Z,8.30
2023-03-02T14:46:54.511Z,7.83
2023-03-02T14:49:21.390Z,7.80
2023-03-02T14:52:05.668Z,7.70
2023-03-02T14:54:40.334Z,8.27
2023-03-02T14:57:16.940Z,8.23
2023-03-02T14:59:43.812Z,7.47
2023-03-02T15:02:24.261Z,8.97
2023-03-02T15:04:56.003Z,7.50
2023-03-02T15:07:24.663Z,7.60
2023-03-02T15:09:51.244Z,8.20
2023-03-02T15:12:17.865Z,7.90
2023-03-02T15:14:44.482Z,8.07
2023-03-02T15:17:11.411Z,7.87
2023-03-02T15:19:38.009Z,7.80
2023-03-02T15:22:04.724Z,7.40
2023-03-02T15:24:33.230Z,8.00
2023-03-02T15:27:00.897Z,8.57
2023-03-02T15:29:27.560Z,8.03
2023-03-02T15:31:54.261Z,7.60
2023-03-02T15:34:21.048Z,7.63
2023-03-02T15:36:47.654Z,7.63
2023-03-02T15:39:15.484Z,7.60
2023-03-02T15:41:42.941Z,7.80
2023-03-02T15:44:21.502Z,8.07
2023-03-02T15:46:49.512Z,7.30
2023-03-02T15:49:16.161Z,8.07
2023-03-02T15:51:42.835Z,8.23
2023-03-02T15:54:10.797Z,7.70
2023-03-02T15:56:44.142Z,7.70
2023-03-02T15:59:11.892Z,7.03
2023-03-02T16:01:38.853Z,6.30
2023-03-02T16:04:05.531Z,6.53
2023-03-02T16:06:32.231Z,7.30
2023-03-02T16:08:58.875Z,6.73
2023-03-02T16:11:25.672Z,7.53
2023-03-02T16:13:52.596Z,7.23
2023-03-02T16:16:20.967Z,8.37
2023-03-02T16:18:52.053Z,17.40
2023-03-02T16:21:18.943Z,13.60
2023-03-02T16:23:46.828Z,19.73
2023-03-02T16:26:18.329Z,9.57
2023-03-02T16:28:45.814Z,23.27
2023-03-02T16:31:18.177Z,10.43
2023-03-02T16:33:45.517Z,8.73
2023-03-02T16:36:13.390Z,7.20
2023-03-02T16:38:40.510Z,6.90
2023-03-02T16:41:14.033Z,7.30
2023-03-02T16:43:46.174Z,9.27
2023-03-02T16:46:13.387Z,8.87
2023-03-02T16:48:40.628Z,8.37
2023-03-02T16:51:07.311Z,7.80
2023-03-02T16:53:34.338Z,8.50
2023-03-02T16:56:01.123Z,7.40
2023-03-02T16:58:27.837Z,8.00
2023-03-02T17:00:55.489Z,8.40
2023-03-02T17:03:22.564Z,8.23
2023-03-02T17:05:49.164Z,8.20
2023-03-02T17:08:16.814Z,8.80
2023-03-02T17:10:44.068Z,8.87
2023-03-02T17:13:12.092Z,8.57
2023-03-02T17:15:39.661Z,8.83
2023-03-02T17:18:06.383Z,8.27
2023-03-02T17:20:33.707Z,8.33
2023-03-02T17:23:00.534Z,7.97
2023-03-02T17:25:27.148Z,7.87
2023-03-02T17:27:53.917Z,8.47
2023-03-02T17:30:20.768Z,7.60
2023-03-02T17:32:47.629Z,8.60
2023-03-02T17:35:15.651Z,8.43
2023-03-02T17:37:42.643Z,7.83
2023-03-02T17:40:13.971Z,8.73
2023-03-02T17:42:40.814Z,7.93
2023-03-02T17:45:08.068Z,9.00
2023-03-02T17:47:35.024Z,8.40
2023-03-02T17:50:04.301Z,9.00
2023-03-02T17:52:31.125Z,7.67
2023-03-02T17:54:57.760Z,9.37
2023-03-02T17:57:25.809Z,15.70
2023-03-02T17:59:52.436Z,20.03
2023-03-02T18:02:19.274Z,16.67
2023-03-02T18:04:46.376Z,11.00
2023-03-02T18:07:13.347Z,14.53
2023-03-02T18:09:39.994Z,13.40
2023-03-02T18:12:07.547Z,20.33
2023-03-02T18:14:36.312Z,14.30
2023-03-02T18:17:04.910Z,11.30
2023-03-02T18:19:31.650Z,13.93
2023-03-02T18:21:58.603Z,12.70
2023-03-02T18:24:25.664Z,10.93
2023-03-02T18:26:52.375Z,13.00
2023-03-02T18:29:19.158Z,15.77
2023-03-02T18:31:45.834Z,11.20
2023-03-02T18:34:12.490Z,10.33
2023-03-02T18:36:39.269Z,11.13
2023-03-02T18:39:06.046Z,9.60
2023-03-02T18:41:32.890Z,10.13
2023-03-02T18:44:01.531Z,10.67
2023-03-02T18:46:30.657Z,10.73
2023-03-02T18:49:00.397Z,10.30
2023-03-02T18:51:27.925Z,12.63
2023-03-02T18:53:56.002Z,17.27
2023-03-02T18:56:23.489Z,13.47
2023-03-02T18:58:51.373Z,10.93
2023-03-02T19:01:18.770Z,10.53
2023-03-02T19:03:45.886Z,9.57
2023-03-02T19:06:14.149Z,11.30
2023-03-02T19:08:40.877Z,14.70
2023-03-02T19:11:07.841Z,11.03
2023-03-02T19:13:34.491Z,15.00
2023-03-02T19:16:02.122Z,16.10
2023-03-02T19:18:29.554Z,14.27
2023-03-02T19:20:57.570Z,11.77
2023-03-02T19:23:24.884Z,12.47
2023-03-02T19:25:51.903Z,15.47
2023-03-02T19:28:18.675Z,13.03
2023-03-02T19:30:45.435Z,11.07
2023-03-02T19:33:16.420Z,11.27
2023-03-02T19:35:46.685Z,11.27
2023-03-02T19:38:14.639Z,10.93
2023-03-02T19:40:41.484Z,9.93
2023-03-02T19:43:08.330Z,11.07
2023-03-02T19:45:35.747Z,9.87
2023-03-02T19:48:03.901Z,10.17
2023-03-02T19:50:31.564Z,9.97
2023-03-02T19:52:59.112Z,10.90
2023-03-02T19:55:27.764Z,9.63
2023-03-02T19:58:00.994Z,11.73
2023-03-02T20:00:33.310Z,9.37
2023-03-02T20:03:00.435Z,11.03
2023-03-02T20:05:27.776Z,9.33
2023-03-02T20:07:55.171Z,8.93
2023-03-02T20:10:28.665Z,9.23
2023-03-02T20:12:55.561Z,9.60
2023-03-02T20:15:22.233Z,9.77
2023-03-02T20:17:48.862Z,9.10
2023-03-02T20:20:15.635Z,9.90
2023-03-02T20:22:43.845Z,8.87
2023-03-02T20:25:11.226Z,8.90
2023-03-02T20:27:38.034Z,9.13
2023-03-02T20:30:08.407Z,8.83
2023-03-02T20:32:37.686Z,10.33
2023-03-02T20:35:05.681Z,10.43
2023-03-02T20:37:36.107Z,10.03
2023-03-02T20:40:06.346Z,9.70
2023-03-02T20:42:34.136Z,8.30
2023-03-02T20:45:02.108Z,8.60
2023-03-02T20:47:30.776Z,9.83
2023-03-02T20:49:58.107Z,9.90
2023-03-02T20:52:24.760Z,9.73
2023-03-02T20:54:51.876Z,9.97
2023-03-02T20:57:24.807Z,11.33
2023-03-02T20:59:55.170Z,9.90
2023-03-02T21:02:22.433Z,9.63
2023-03-02T21:04:49.193Z,9.07
2023-03-02T21:07:19.136Z,9.70
2023-03-02T21:09:46.864Z,9.10
2023-03-02T21:12:14.861Z,9.60
2023-03-02T21:14:44.738Z,11.77
2023-03-02T21:17:11.570Z,10.27
2023-03-02T21:19:38.505Z,9.83
2023-03-02T21:22:05.789Z,10.90
2023-03-02T21:24:32.711Z,10.67
2023-03-02T21:27:01.301Z,10.83
2023-03-02T21:29:28.353Z,11.40
2023-03-02T21:31:55.324Z,11.50
2023-03-02T21:34:22.347Z,11.00
2023-03-02T21:36:52.984Z,10.27
2023-03-02T21:39:23.521Z,10.20
2023-03-02T21:41:51.186Z,10.77
2023-03-02T21:44:19.056Z,11.30
2023-03-02T21:46:46.715Z,11.83
2023-03-02T21:49:18.918Z,12.83
2023-03-02T21:51:48.109Z,14.47
2023-03-02T21:54:15.575Z,20.07
2023-03-02T21:56:43.598Z,17.27
2023-03-02T21:59:11.431Z,15.80
2023-03-02T22:01:38.216Z,14.03
2023-03-02T22:04:05.134Z,14.70
2023-03-02T22:06:33.244Z,15.33
2023-03-02T22:09:01.682Z,15.40
2023-03-02T22:11:32.420Z,16.47
2023-03-02T22:14:02.721Z,17.27
2023-03-02T22:16:36.862Z,16.83
2023-03-02T22:19:17.909Z,15.53
2023-03-02T22:21:48.250Z,16.00
2023-03-02T22:24:21.905Z,17.03
2023-03-02T22:26:55.273Z,16.33
2023-03-02T22:29:32.294Z,15.13
2023-03-02T22:32:13.042Z,16.73
2023-03-02T22:34:42.948Z,16.73
2023-03-02T22:37:13.238Z,16.47
2023-03-02T22:39:42.149Z,15.83
2023-03-02T22:42:16.987Z,16.20
2023-03-02T22:44:55.227Z,16.93
2023-03-02T22:47:22.056Z,17.20
2023-03-02T22:49:57.666Z,19.57
2023-03-02T22:52:27.619Z,16.33
2023-03-02T22:54:55.097Z,17.13
2023-03-02T22:57:30.438Z,16.13
2023-03-02T23:00:14.060Z,15.17
2023-03-02T23:02:44.133Z,16.77
2023-03-02T23:05:30.446Z,16.90
2023-03-02T23:08:26.737Z,15.97
2023-03-02T23:10:57.751Z,16.10
2023-03-02T23:13:30.980Z,16.50
2023-03-02T23:15:57.683Z,16.87
2023-03-02T23:18:27.455Z,17.17
2023-03-02T23:20:54.502Z,16.30
2023-03-02T23:23:23.074Z,16.50
2023-03-02T23:25:50.665Z,17.07
2023-03-02T23:28:17.405Z,16.50
2023-03-02T23:30:45.254Z,17.27
2023-03-02T23:33:11.956Z,17.47
2023-03-02T23:35:38.702Z,18.47
2023-03-02T23:38:05.322Z,16.43
2023-03-02T23:40:31.920Z,17.03
2023-03-02T23:42:58.725Z,17.70
2023-03-02T23:45:26.419Z,17.07
2023-03-02T23:47:53.121Z,17.97
2023-03-02T23:50:19.883Z,18.23
2023-03-02T23:52:46.574Z,16.87
2023-03-02T23:55:13.364Z,17.80
2023-03-02T23:57:40.166Z,17.43
